Austin Bergstrom International Airport Austin US
ICAO: KAUS
IATA: AUS
Category: Large
Scheduled Services: Yes

Elevation: 542 ft
TransAlt. 18000 ft.

Airport Communications:
APP/DEP:118.8
ASOS:128.875
ATIS:124.4
CLNC DEL:125.5
GND:121.7
ARNG OPS:36.8
SAN ANGELO RDO:122.55
TWR:121
UNICOM:122.95

KAUS Zoom In..

Runways:

(A) RW 17L length 9000 ft width 150 ft
ILS 110.50 / hdg 173

(B) RW 17R length 12248 ft width 150 ft
ILS 110.95 / hdg 173

(C) RW 35L length 12248 ft width 150 ft
ILS 110.95 / hdg 353

(D) RW 35R length 9000 ft width 150 ft
ILS 110.50 / hdg 353

Location; KAUS
Day. 22 / Time. 01.53 Zulu
* Altimeter: 29.94
* Temperature: 24° c. 75.2°f.
* Wind from: 110° Speed 04 kn.
Dewpoint: 21° c.
Visibility: 10 Statute Miles.
Clouds: Few 15000 ft.
Clouds: Scattered 2000 ft.
Clouds: Broken 25000 ft.

KAUS 220153Z 11004KT 10SM FEW150 SCT200 BKN250 24/21 A2994 RMK AO2 SLP131 T02390211


Wind From 110°
Speed 04 kn.

 
 
jpsmedia.com for Web Design SOUNDCLOUD worldairports.se 2018   terms of use